createdAt,value
2022-11-26T00:03:39.631Z,97059.00
2022-11-26T00:07:50.132Z,97061.00
2022-11-26T00:11:53.581Z,97069.00
2022-11-26T00:16:30.646Z,97066.00
2022-11-26T00:20:33.794Z,97067.00
2022-11-26T00:24:38.515Z,97067.00
2022-11-26T00:28:48.556Z,97072.00
2022-11-26T00:32:52.060Z,97076.00
2022-11-26T00:36:55.370Z,97075.00
2022-11-26T00:41:00.137Z,97084.00
2022-11-26T00:45:03.334Z,97087.00
2022-11-26T00:49:06.457Z,97095.00
2022-11-26T00:53:13.391Z,97096.00
2022-11-26T00:57:17.938Z,97099.00
2022-11-26T01:02:16.170Z,97114.00
2022-11-26T01:06:21.733Z,97105.00
2022-11-26T01:10:27.358Z,97121.00
2022-11-26T01:14:31.935Z,97122.00
2022-11-26T01:18:36.412Z,97123.00
2022-11-26T01:23:11.519Z,97130.00
2022-11-26T01:27:14.717Z,97133.00
2022-11-26T01:31:21.688Z,97141.00
2022-11-26T01:35:55.835Z,97150.00
2022-11-26T01:39:59.074Z,97146.00
2022-11-26T01:44:02.541Z,97151.00
2022-11-26T01:48:23.208Z,97151.00
2022-11-26T01:52:41.885Z,97154.00
2022-11-26T01:56:48.536Z,97159.00
2022-11-26T02:00:52.730Z,97158.00
2022-11-26T02:05:27.852Z,97159.00
2022-11-26T02:09:32.942Z,97167.00
2022-11-26T02:13:41.168Z,97159.00
2022-11-26T02:18:12.353Z,97168.00
2022-11-26T02:22:30.299Z,97156.00
2022-11-26T02:27:12.153Z,97148.00
2022-11-26T02:31:24.611Z,97141.00
2022-11-26T02:35:54.501Z,97168.00
2022-11-26T02:39:58.336Z,97163.00
2022-11-26T02:44:01.627Z,97179.00
2022-11-26T02:48:12.437Z,97183.00
2022-11-26T02:52:18.008Z,97173.00
2022-11-26T02:56:23.383Z,97177.00
2022-11-26T03:00:26.911Z,97182.00
2022-11-26T03:04:36.060Z,97191.00
2022-11-26T03:09:07.309Z,97194.00
2022-11-26T03:13:10.469Z,97195.00
2022-11-26T03:17:13.899Z,97197.00
2022-11-26T03:21:18.484Z,97199.00
2022-11-26T03:25:55.179Z,97206.00
2022-11-26T03:29:58.533Z,97202.00
2022-11-26T03:34:01.764Z,97201.00
2022-11-26T03:38:06.457Z,97209.00
2022-11-26T03:42:40.658Z,97198.00
2022-11-26T03:46:43.906Z,97215.00
2022-11-26T03:50:47.019Z,97220.00
2022-11-26T03:55:27.353Z,97223.00
2022-11-26T03:59:30.637Z,97232.00
2022-11-26T04:03:33.874Z,97231.00
2022-11-26T04:08:10.702Z,97235.00
2022-11-26T04:12:15.226Z,97240.00
2022-11-26T04:16:18.518Z,97243.00
2022-11-26T04:20:21.737Z,97253.00
2022-11-26T04:24:25.016Z,97256.00
2022-11-26T04:28:29.482Z,97256.00
2022-11-26T04:32:32.657Z,97260.00
2022-11-26T04:36:35.729Z,97257.00
2022-11-26T04:41:12.534Z,97259.00
2022-11-26T04:45:17.321Z,97274.00
2022-11-26T04:49:20.543Z,97286.00
2022-11-26T04:54:00.426Z,97289.00
2022-11-26T04:58:06.042Z,97293.00
2022-11-26T05:02:44.878Z,97299.00
2022-11-26T05:06:48.043Z,97306.00
2022-11-26T05:11:24.806Z,97308.00
2022-11-26T05:16:01.868Z,97312.00
2022-11-26T05:20:39.057Z,97311.00
2022-11-26T05:25:17.740Z,97320.00
2022-11-26T05:29:20.873Z,97324.00
2022-11-26T05:33:57.761Z,97330.00
2022-11-26T05:38:34.583Z,97339.00
2022-11-26T05:43:11.177Z,97350.00
2022-11-26T05:47:15.767Z,97352.00
2022-11-26T05:51:49.763Z,97353.00
2022-11-26T05:55:58.079Z,97349.00
2022-11-26T06:00:01.476Z,97357.00
2022-11-26T06:04:06.786Z,97355.00
2022-11-26T06:08:10.337Z,97364.00
2022-11-26T06:12:47.329Z,97357.00
2022-11-26T06:17:24.422Z,97366.00
2022-11-26T06:22:03.089Z,97361.00
2022-11-26T06:26:09.558Z,97374.00
2022-11-26T06:30:21.489Z,97373.00
2022-11-26T06:34:55.675Z,97374.00
2022-11-26T06:39:00.109Z,97378.00
2022-11-26T06:43:34.148Z,97380.00
2022-11-26T06:48:10.930Z,97387.00
2022-11-26T06:52:14.873Z,97401.00
2022-11-26T06:56:51.371Z,97398.00
2022-11-26T07:01:49.375Z,97417.00
2022-11-26T07:06:29.540Z,97413.00
2022-11-26T07:11:05.455Z,97424.00
2022-11-26T07:15:09.698Z,97421.00
2022-11-26T07:19:15.011Z,97432.00
2022-11-26T07:23:53.617Z,97425.00
2022-11-26T07:28:24.531Z,97441.00
2022-11-26T07:32:27.978Z,97447.00
2022-11-26T07:37:05.208Z,97449.00
2022-11-26T07:49:31.899Z,97454.00
2022-11-26T07:56:41.797Z,97459.00
2022-11-26T08:01:16.692Z,97462.00
2022-11-26T08:05:19.960Z,97469.00
2022-11-26T08:17:48.832Z,97476.00
2022-11-26T08:24:00.276Z,97481.00
2022-11-26T08:28:03.275Z,97477.00
2022-11-26T08:32:40.109Z,97464.00
2022-11-26T08:36:43.381Z,97479.00
2022-11-26T08:41:21.857Z,97483.00
2022-11-26T08:45:24.954Z,97484.00
2022-11-26T08:50:02.019Z,97483.00
2022-11-26T08:54:05.589Z,97496.00
2022-11-26T08:58:45.703Z,97497.00
2022-11-26T09:03:19.755Z,97496.00
2022-11-26T09:07:23.210Z,97509.00
2022-11-26T09:12:01.140Z,97521.00
2022-11-26T09:16:36.334Z,97528.00
2022-11-26T09:21:09.861Z,97540.00
2022-11-26T09:25:46.610Z,97537.00
2022-11-26T09:30:28.587Z,97546.00
2022-11-26T09:35:04.021Z,97544.00
2022-11-26T09:39:37.851Z,97547.00
2022-11-26T09:43:53.357Z,97548.00
2022-11-26T09:47:56.718Z,97551.00
2022-11-26T09:52:33.362Z,97547.00
2022-11-26T09:57:18.651Z,97554.00
2022-11-26T10:01:46.282Z,97552.00
2022-11-26T10:06:23.051Z,97556.00
2022-11-26T10:11:04.309Z,97559.00
2022-11-26T10:15:44.343Z,97541.00
2022-11-26T10:20:24.751Z,97539.00
2022-11-26T10:24:31.475Z,97529.00
2022-11-26T10:29:01.872Z,97542.00
2022-11-26T10:33:44.897Z,97536.00
2022-11-26T10:38:15.693Z,97525.00
2022-11-26T10:42:21.468Z,97526.00
2022-11-26T10:46:55.061Z,97535.00
2022-11-26T10:51:16.633Z,97524.00
2022-11-26T10:55:55.136Z,97531.00
2022-11-26T11:00:33.850Z,97540.00
2022-11-26T11:05:10.241Z,97530.00
2022-11-26T11:09:27.983Z,97536.00
2022-11-26T11:13:42.160Z,97533.00
2022-11-26T11:17:45.753Z,97532.00
2022-11-26T11:21:49.308Z,97539.00
2022-11-26T11:26:02.629Z,97527.00
2022-11-26T11:35:25.876Z,97535.00
2022-11-26T11:40:06.256Z,97533.00
2022-11-26T11:44:17.625Z,97534.00
2022-11-26T11:48:49.785Z,97543.00
2022-11-26T11:53:30.183Z,97540.00
2022-11-26T11:58:01.671Z,97542.00
2022-11-26T12:02:34.951Z,97546.00
2022-11-26T12:07:12.719Z,97540.00
2022-11-26T12:11:29.371Z,97540.00
2022-11-26T12:15:38.442Z,97541.00
2022-11-26T12:19:49.122Z,97543.00
2022-11-26T12:23:57.998Z,97546.00
2022-11-26T12:28:06.099Z,97551.00
2022-11-26T12:32:41.194Z,97556.00
2022-11-26T12:36:51.268Z,97558.00
2022-11-26T12:41:20.518Z,97552.00
2022-11-26T12:45:46.030Z,97547.00
2022-11-26T12:50:14.279Z,97544.00
2022-11-26T12:54:41.286Z,97547.00
2022-11-26T12:59:19.329Z,97555.00
2022-11-26T13:03:59.388Z,97550.00
2022-11-26T13:08:42.148Z,97555.00
2022-11-26T13:13:15.164Z,97552.00
2022-11-26T13:17:43.438Z,97551.00
2022-11-26T13:22:28.364Z,97551.00
2022-11-26T13:27:07.765Z,97544.00
2022-11-26T13:31:46.770Z,97557.00
2022-11-26T13:36:37.132Z,97547.00
2022-11-26T13:41:34.933Z,97549.00
2022-11-26T13:46:11.965Z,97548.00
2022-11-26T13:50:51.834Z,97549.00
2022-11-26T13:55:27.588Z,97541.00
2022-11-26T13:59:32.043Z,97538.00
2022-11-26T14:03:45.764Z,97536.00
2022-11-26T14:07:51.212Z,97541.00
2022-11-26T14:11:57.582Z,97544.00
2022-11-26T14:16:03.081Z,97542.00
2022-11-26T14:20:11.584Z,97541.00
2022-11-26T14:24:51.500Z,97544.00
2022-11-26T14:29:06.112Z,97541.00
2022-11-26T14:33:51.454Z,97538.00
2022-11-26T14:37:57.075Z,97536.00
2022-11-26T14:42:31.014Z,97540.00
2022-11-26T14:47:12.709Z,97542.00
2022-11-26T14:51:44.693Z,97537.00
2022-11-26T14:56:20.064Z,97540.00
2022-11-26T15:01:08.497Z,97545.00
2022-11-26T15:06:06.110Z,97552.00
2022-11-26T15:10:21.025Z,97554.00
2022-11-26T15:14:46.757Z,97556.00
2022-11-26T15:19:21.103Z,97566.00
2022-11-26T15:23:58.633Z,97570.00
2022-11-26T15:28:06.518Z,97571.00
2022-11-26T15:32:37.305Z,97582.00
2022-11-26T15:37:14.251Z,97578.00
2022-11-26T15:41:20.897Z,97578.00
2022-11-26T15:45:54.255Z,97571.00
2022-11-26T15:50:30.207Z,97566.00
2022-11-26T15:54:56.680Z,97564.00
2022-11-26T15:59:40.589Z,97577.00
2022-11-26T16:03:46.996Z,97581.00
2022-11-26T16:07:58.797Z,97583.00
2022-11-26T16:12:27.807Z,97588.00
2022-11-26T16:17:08.461Z,97580.00
2022-11-26T16:21:19.295Z,97587.00
2022-11-26T16:26:06.737Z,97574.00
2022-11-26T16:30:32.991Z,97576.00
2022-11-26T16:35:17.516Z,97568.00
2022-11-26T16:39:29.890Z,97568.00
2022-11-26T16:44:05.033Z,97570.00
2022-11-26T16:48:41.689Z,97566.00
2022-11-26T16:52:44.693Z,97560.00
2022-11-26T16:56:50.664Z,97555.00
2022-11-26T17:01:28.293Z,97560.00
2022-11-26T17:05:31.590Z,97579.00
2022-11-26T17:09:34.898Z,97584.00
2022-11-26T17:14:13.565Z,97590.00
2022-11-26T17:18:20.286Z,97587.00
2022-11-26T17:22:24.460Z,97586.00
2022-11-26T17:26:27.499Z,97586.00
2022-11-26T17:30:32.105Z,97592.00
2022-11-26T17:34:35.266Z,97597.00
2022-11-26T17:39:12.286Z,97588.00
2022-11-26T17:43:15.768Z,97584.00
2022-11-26T17:47:22.166Z,97586.00
2022-11-26T17:51:25.229Z,97588.00
2022-11-26T17:56:02.228Z,97587.00
2022-11-26T18:00:39.280Z,97591.00
2022-11-26T18:05:17.701Z,97590.00
2022-11-26T18:09:20.769Z,97601.00
2022-11-26T18:13:23.795Z,97610.00
2022-11-26T18:17:27.313Z,97612.00
2022-11-26T18:21:32.545Z,97618.00
2022-11-26T18:26:08.041Z,97614.00
2022-11-26T18:30:11.703Z,97616.00
2022-11-26T18:34:14.696Z,97616.00
2022-11-26T18:38:19.127Z,97626.00
2022-11-26T18:42:36.521Z,97619.00
2022-11-26T18:46:58.581Z,97622.00
2022-11-26T18:51:01.932Z,97622.00
2022-11-26T18:55:08.732Z,97615.00
2022-11-26T18:59:13.609Z,97621.00
2022-11-26T19:03:47.439Z,97608.00
2022-11-26T19:07:50.599Z,97606.00
2022-11-26T19:11:55.836Z,97607.00
2022-11-26T19:15:59.390Z,97607.00
2022-11-26T19:20:02.424Z,97611.00
2022-11-26T19:24:36.264Z,97604.00
2022-11-26T19:28:40.685Z,97608.00
2022-11-26T19:33:14.559Z,97596.00
2022-11-26T19:37:51.634Z,97593.00
2022-11-26T19:41:55.407Z,97589.00
2022-11-26T19:46:33.645Z,97583.00
2022-11-26T19:51:04.441Z,97584.00
2022-11-26T19:55:40.989Z,97578.00
2022-11-26T20:00:17.972Z,97570.00
2022-11-26T20:04:56.705Z,97560.00
2022-11-26T20:09:30.410Z,97559.00
2022-11-26T20:14:09.731Z,97560.00
2022-11-26T20:18:43.697Z,97568.00
2022-11-26T20:23:22.500Z,97562.00
2022-11-26T20:27:58.251Z,97564.00
2022-11-26T20:32:35.687Z,97567.00
2022-11-26T20:36:39.141Z,97568.00
2022-11-26T20:40:44.644Z,97566.00
2022-11-26T20:44:47.727Z,97559.00
2022-11-26T20:48:50.698Z,97566.00
2022-11-26T20:53:27.469Z,97565.00
2022-11-26T20:58:05.772Z,97560.00
2022-11-26T21:02:39.776Z,97561.00
2022-11-26T21:07:16.500Z,97561.00
2022-11-26T21:11:53.468Z,97554.00
2022-11-26T21:15:57.856Z,97557.00
2022-11-26T21:20:00.881Z,97551.00
2022-11-26T21:24:04.761Z,97555.00
2022-11-26T21:28:08.265Z,97557.00
2022-11-26T21:32:46.710Z,97552.00
2022-11-26T21:36:49.668Z,97543.00
2022-11-26T21:40:52.674Z,97549.00
2022-11-26T21:44:55.662Z,97548.00
2022-11-26T21:49:00.317Z,97558.00
2022-11-26T21:53:03.333Z,97556.00
2022-11-26T21:57:06.412Z,97558.00
2022-11-26T22:01:13.118Z,97550.00
2022-11-26T22:05:17.600Z,97559.00
2022-11-26T22:09:51.507Z,97552.00
2022-11-26T22:13:55.356Z,97553.00
2022-11-26T22:17:58.439Z,97560.00
2022-11-26T22:22:02.820Z,97564.00
2022-11-26T22:26:36.754Z,97572.00
2022-11-26T22:30:39.863Z,97562.00
2022-11-26T22:34:42.888Z,97567.00
2022-11-26T22:38:47.655Z,97569.00
2022-11-26T22:42:50.673Z,97583.00
2022-11-26T22:46:53.631Z,97585.00
2022-11-26T22:50:57.047Z,97587.00
2022-11-26T22:55:01.512Z,97587.00
2022-11-26T22:59:05.421Z,97582.00
2022-11-26T23:03:09.213Z,97574.00
2022-11-26T23:07:12.394Z,97560.00
2022-11-26T23:11:19.307Z,97557.00
2022-11-26T23:15:53.134Z,97553.00
2022-11-26T23:19:56.158Z,97555.00
2022-11-26T23:23:59.609Z,97556.00
2022-11-26T23:28:04.224Z,97545.00
2022-11-26T23:32:07.256Z,97545.00
2022-11-26T23:36:43.867Z,97537.00
2022-11-26T23:40:53.759Z,97536.00
2022-11-26T23:44:58.150Z,97530.00
2022-11-26T23:49:01.155Z,97537.00
2022-11-26T23:53:38.655Z,97529.00
2022-11-26T23:57:41.656Z,97527.00
